sensor_id;sensor_type;location;lat;lon;timestamp;P1;durP1;ratioP1;P2;durP2;ratioP2
77978;SDS011;67169;50.268;8.694;2023-12-29T00:01:01;3.33;;;2.28;;
77978;SDS011;67169;50.268;8.694;2023-12-29T00:03:29;2.38;;;1.88;;
77978;SDS011;67169;50.268;8.694;2023-12-29T00:05:55;2.47;;;1.52;;
77978;SDS011;67169;50.268;8.694;2023-12-29T00:08:22;2.28;;;1.75;;
77978;SDS011;67169;50.268;8.694;2023-12-29T00:10:48;2.55;;;1.98;;
77978;SDS011;67169;50.268;8.694;2023-12-29T00:13:15;2.85;;;2.22;;
77978;SDS011;67169;50.268;8.694;2023-12-29T00:15:47;2.58;;;1.50;;
77978;SDS011;67169;50.268;8.694;2023-12-29T00:18:15;1.95;;;1.73;;
77978;SDS011;67169;50.268;8.694;2023-12-29T00:20:43;2.22;;;1.73;;
77978;SDS011;67169;50.268;8.694;2023-12-29T00:23:10;2.50;;;1.88;;
77978;SDS011;67169;50.268;8.694;2023-12-29T00:25:36;2.13;;;1.92;;
77978;SDS011;67169;50.268;8.694;2023-12-29T00:28:03;2.17;;;1.77;;
77978;SDS011;67169;50.268;8.694;2023-12-29T00:30:30;6.03;;;2.00;;
77978;SDS011;67169;50.268;8.694;2023-12-29T00:32:56;3.53;;;2.10;;
77978;SDS011;67169;50.268;8.694;2023-12-29T00:35:23;5.55;;;2.00;;
77978;SDS011;67169;50.268;8.694;2023-12-29T00:37:51;2.67;;;2.00;;
77978;SDS011;67169;50.268;8.694;2023-12-29T00:42:44;3.58;;;2.10;;
77978;SDS011;67169;50.268;8.694;2023-12-29T00:45:11;3.78;;;1.58;;
77978;SDS011;67169;50.268;8.694;2023-12-29T00:47:37;2.22;;;1.95;;
77978;SDS011;67169;50.268;8.694;2023-12-29T00:50:04;2.38;;;1.48;;
77978;SDS011;67169;50.268;8.694;2023-12-29T00:52:31;2.50;;;1.50;;
77978;SDS011;67169;50.268;8.694;2023-12-29T00:55:00;2.03;;;1.20;;
77978;SDS011;67169;50.268;8.694;2023-12-29T00:57:26;2.97;;;2.15;;
77978;SDS011;67169;50.268;8.694;2023-12-29T00:59:53;2.28;;;1.60;;
77978;SDS011;67169;50.268;8.694;2023-12-29T01:02:19;6.60;;;1.52;;
77978;SDS011;67169;50.268;8.694;2023-12-29T01:04:46;1.90;;;1.65;;
77978;SDS011;67169;50.268;8.694;2023-12-29T01:07:13;1.30;;;1.20;;
77978;SDS011;67169;50.268;8.694;2023-12-29T01:09:39;1.67;;;1.55;;
77978;SDS011;67169;50.268;8.694;2023-12-29T01:12:07;1.85;;;1.60;;
77978;SDS011;67169;50.268;8.694;2023-12-29T01:14:34;2.08;;;1.70;;
77978;SDS011;67169;50.268;8.694;2023-12-29T01:17:01;1.55;;;1.30;;
77978;SDS011;67169;50.268;8.694;2023-12-29T01:19:27;4.38;;;2.05;;
77978;SDS011;67169;50.268;8.694;2023-12-29T01:21:54;2.58;;;1.60;;
77978;SDS011;67169;50.268;8.694;2023-12-29T01:24:20;2.20;;;1.48;;
77978;SDS011;67169;50.268;8.694;2023-12-29T01:26:47;1.50;;;1.30;;
77978;SDS011;67169;50.268;8.694;2023-12-29T01:29:15;4.00;;;1.98;;
77978;SDS011;67169;50.268;8.694;2023-12-29T01:31:41;1.50;;;1.08;;
77978;SDS011;67169;50.268;8.694;2023-12-29T01:34:08;2.25;;;1.73;;
77978;SDS011;67169;50.268;8.694;2023-12-29T01:36:34;2.00;;;1.60;;
77978;SDS011;67169;50.268;8.694;2023-12-29T01:39:01;1.40;;;1.00;;
77978;SDS011;67169;50.268;8.694;2023-12-29T01:41:28;1.90;;;0.98;;
77978;SDS011;67169;50.268;8.694;2023-12-29T01:46:46;1.15;;;0.73;;
77978;SDS011;67169;50.268;8.694;2023-12-29T01:49:14;4.25;;;1.35;;
77978;SDS011;67169;50.268;8.694;2023-12-29T01:51:42;1.75;;;1.63;;
77978;SDS011;67169;50.268;8.694;2023-12-29T01:54:10;1.80;;;1.55;;
77978;SDS011;67169;50.268;8.694;2023-12-29T01:59:04;1.38;;;0.80;;
77978;SDS011;67169;50.268;8.694;2023-12-29T02:01:32;7.30;;;1.42;;
77978;SDS011;67169;50.268;8.694;2023-12-29T02:04:00;2.10;;;1.90;;
77978;SDS011;67169;50.268;8.694;2023-12-29T02:06:27;2.30;;;1.92;;
77978;SDS011;67169;50.268;8.694;2023-12-29T02:08:55;1.40;;;1.30;;
77978;SDS011;67169;50.268;8.694;2023-12-29T02:11:21;1.80;;;1.05;;
77978;SDS011;67169;50.268;8.694;2023-12-29T02:13:48;2.25;;;1.23;;
77978;SDS011;67169;50.268;8.694;2023-12-29T02:16:15;1.45;;;1.27;;
77978;SDS011;67169;50.268;8.694;2023-12-29T02:18:48;2.67;;;1.45;;
77978;SDS011;67169;50.268;8.694;2023-12-29T02:21:16;1.50;;;1.40;;
77978;SDS011;67169;50.268;8.694;2023-12-29T02:23:43;1.88;;;1.08;;
77978;SDS011;67169;50.268;8.694;2023-12-29T02:26:11;1.67;;;1.58;;
77978;SDS011;67169;50.268;8.694;2023-12-29T02:28:43;1.15;;;0.82;;
77978;SDS011;67169;50.268;8.694;2023-12-29T02:31:16;2.28;;;1.02;;
77978;SDS011;67169;50.268;8.694;2023-12-29T02:33:45;2.35;;;0.90;;
77978;SDS011;67169;50.268;8.694;2023-12-29T02:36:15;1.55;;;0.88;;
77978;SDS011;67169;50.268;8.694;2023-12-29T02:38:43;1.20;;;0.80;;
77978;SDS011;67169;50.268;8.694;2023-12-29T02:41:11;1.05;;;0.95;;
77978;SDS011;67169;50.268;8.694;2023-12-29T02:43:40;1.42;;;1.20;;
77978;SDS011;67169;50.268;8.694;2023-12-29T02:46:06;1.42;;;1.27;;
77978;SDS011;67169;50.268;8.694;2023-12-29T02:48:33;1.88;;;1.05;;
77978;SDS011;67169;50.268;8.694;2023-12-29T02:50:59;1.10;;;1.00;;
77978;SDS011;67169;50.268;8.694;2023-12-29T02:53:26;0.68;;;0.65;;
77978;SDS011;67169;50.268;8.694;2023-12-29T02:55:52;1.15;;;0.75;;
77978;SDS011;67169;50.268;8.694;2023-12-29T02:58:20;1.50;;;1.30;;
77978;SDS011;67169;50.268;8.694;2023-12-29T03:00:47;2.08;;;1.42;;
77978;SDS011;67169;50.268;8.694;2023-12-29T03:03:13;2.25;;;1.05;;
77978;SDS011;67169;50.268;8.694;2023-12-29T03:05:40;0.68;;;0.60;;
77978;SDS011;67169;50.268;8.694;2023-12-29T03:08:07;1.00;;;0.85;;
77978;SDS011;67169;50.268;8.694;2023-12-29T03:10:33;6.85;;;1.05;;
77978;SDS011;67169;50.268;8.694;2023-12-29T03:13:00;0.40;;;0.40;;
77978;SDS011;67169;50.268;8.694;2023-12-29T03:15:29;2.50;;;0.80;;
77978;SDS011;67169;50.268;8.694;2023-12-29T03:17:55;1.42;;;1.05;;
77978;SDS011;67169;50.268;8.694;2023-12-29T03:20:22;1.23;;;1.00;;
77978;SDS011;67169;50.268;8.694;2023-12-29T03:22:48;0.65;;;0.63;;
77978;SDS011;67169;50.268;8.694;2023-12-29T03:25:15;2.25;;;1.02;;
77978;SDS011;67169;50.268;8.694;2023-12-29T03:27:41;2.08;;;0.70;;
77978;SDS011;67169;50.268;8.694;2023-12-29T03:30:08;1.50;;;1.00;;
77978;SDS011;67169;50.268;8.694;2023-12-29T03:32:37;0.70;;;0.70;;
77978;SDS011;67169;50.268;8.694;2023-12-29T03:35:04;1.73;;;0.68;;
77978;SDS011;67169;50.268;8.694;2023-12-29T03:37:31;1.52;;;1.00;;
77978;SDS011;67169;50.268;8.694;2023-12-29T03:39:58;3.00;;;1.30;;
77978;SDS011;67169;50.268;8.694;2023-12-29T03:42:24;1.00;;;1.00;;
77978;SDS011;67169;50.268;8.694;2023-12-29T03:44:51;1.08;;;0.80;;
77978;SDS011;67169;50.268;8.694;2023-12-29T03:47:17;0.52;;;0.52;;
77978;SDS011;67169;50.268;8.694;2023-12-29T03:49:45;1.13;;;0.80;;
77978;SDS011;67169;50.268;8.694;2023-12-29T03:52:12;3.80;;;1.33;;
77978;SDS011;67169;50.268;8.694;2023-12-29T03:54:38;1.63;;;0.70;;
77978;SDS011;67169;50.268;8.694;2023-12-29T03:57:05;1.92;;;1.20;;
77978;SDS011;67169;50.268;8.694;2023-12-29T03:59:32;0.68;;;0.60;;
77978;SDS011;67169;50.268;8.694;2023-12-29T04:01:58;1.95;;;0.80;;
77978;SDS011;67169;50.268;8.694;2023-12-29T04:04:25;2.47;;;0.90;;
77978;SDS011;67169;50.268;8.694;2023-12-29T04:06:52;1.83;;;1.30;;
77978;SDS011;67169;50.268;8.694;2023-12-29T04:09:19;1.90;;;0.70;;
77978;SDS011;67169;50.268;8.694;2023-12-29T04:11:46;3.35;;;1.17;;
77978;SDS011;67169;50.268;8.694;2023-12-29T04:14:13;1.40;;;1.20;;
77978;SDS011;67169;50.268;8.694;2023-12-29T04:16:39;1.17;;;1.08;;
77978;SDS011;67169;50.268;8.694;2023-12-29T04:19:06;2.97;;;1.02;;
77978;SDS011;67169;50.268;8.694;2023-12-29T04:21:32;4.22;;;1.75;;
77978;SDS011;67169;50.268;8.694;2023-12-29T04:24:00;1.67;;;0.90;;
77978;SDS011;67169;50.268;8.694;2023-12-29T04:28:53;1.30;;;0.75;;
77978;SDS011;67169;50.268;8.694;2023-12-29T04:31:20;0.95;;;0.88;;
77978;SDS011;67169;50.268;8.694;2023-12-29T04:33:47;0.70;;;0.70;;
77978;SDS011;67169;50.268;8.694;2023-12-29T04:36:13;2.08;;;1.25;;
77978;SDS011;67169;50.268;8.694;2023-12-29T04:38:40;3.05;;;0.98;;
77978;SDS011;67169;50.268;8.694;2023-12-29T04:41:08;0.98;;;0.88;;
77978;SDS011;67169;50.268;8.694;2023-12-29T04:43:34;3.22;;;1.20;;
77978;SDS011;67169;50.268;8.694;2023-12-29T04:46:01;3.55;;;1.38;;
77978;SDS011;67169;50.268;8.694;2023-12-29T04:48:28;0.90;;;0.70;;
77978;SDS011;67169;50.268;8.694;2023-12-29T04:50:54;1.63;;;0.80;;
77978;SDS011;67169;50.268;8.694;2023-12-29T04:53:21;0.95;;;0.75;;
77978;SDS011;67169;50.268;8.694;2023-12-29T04:55:47;2.22;;;0.95;;
77978;SDS011;67169;50.268;8.694;2023-12-29T04:58:15;1.20;;;1.08;;
77978;SDS011;67169;50.268;8.694;2023-12-29T05:00:42;2.58;;;0.95;;
77978;SDS011;67169;50.268;8.694;2023-12-29T05:03:08;1.13;;;0.90;;
77978;SDS011;67169;50.268;8.694;2023-12-29T05:05:35;0.60;;;0.28;;
77978;SDS011;67169;50.268;8.694;2023-12-29T05:08:02;1.65;;;0.65;;
77978;SDS011;67169;50.268;8.694;2023-12-29T05:10:28;1.25;;;0.80;;
77978;SDS011;67169;50.268;8.694;2023-12-29T05:12:55;1.85;;;0.68;;
77978;SDS011;67169;50.268;8.694;2023-12-29T05:15:23;0.52;;;0.47;;
77978;SDS011;67169;50.268;8.694;2023-12-29T05:17:49;2.92;;;0.82;;
77978;SDS011;67169;50.268;8.694;2023-12-29T05:20:17;3.45;;;0.68;;
77978;SDS011;67169;50.268;8.694;2023-12-29T05:22:43;3.00;;;1.10;;
77978;SDS011;67169;50.268;8.694;2023-12-29T05:25:10;4.80;;;1.15;;
77978;SDS011;67169;50.268;8.694;2023-12-29T05:27:36;2.53;;;0.88;;
77978;SDS011;67169;50.268;8.694;2023-12-29T05:30:03;0.82;;;0.82;;
77978;SDS011;67169;50.268;8.694;2023-12-29T05:32:32;2.35;;;1.45;;
77978;SDS011;67169;50.268;8.694;2023-12-29T05:34:58;0.90;;;0.65;;
77978;SDS011;67169;50.268;8.694;2023-12-29T05:37:25;3.25;;;0.85;;
77978;SDS011;67169;50.268;8.694;2023-12-29T05:39:51;2.55;;;1.42;;
77978;SDS011;67169;50.268;8.694;2023-12-29T05:42:18;2.05;;;1.10;;
77978;SDS011;67169;50.268;8.694;2023-12-29T05:44:45;1.58;;;1.48;;
77978;SDS011;67169;50.268;8.694;2023-12-29T05:47:11;2.90;;;0.80;;
77978;SDS011;67169;50.268;8.694;2023-12-29T05:49:39;1.10;;;0.80;;
77978;SDS011;67169;50.268;8.694;2023-12-29T05:52:11;2.65;;;0.73;;
77978;SDS011;67169;50.268;8.694;2023-12-29T05:55:07;0.85;;;0.73;;
77978;SDS011;67169;50.268;8.694;2023-12-29T05:57:39;1.55;;;0.82;;
77978;SDS011;67169;50.268;8.694;2023-12-29T06:00:11;2.55;;;1.08;;
77978;SDS011;67169;50.268;8.694;2023-12-29T06:02:47;1.65;;;0.88;;
77978;SDS011;67169;50.268;8.694;2023-12-29T06:08:31;1.25;;;0.95;;
77978;SDS011;67169;50.268;8.694;2023-12-29T06:11:03;1.23;;;0.98;;
77978;SDS011;67169;50.268;8.694;2023-12-29T06:13:35;2.75;;;1.00;;
77978;SDS011;67169;50.268;8.694;2023-12-29T06:16:07;0.68;;;0.60;;
77978;SDS011;67169;50.268;8.694;2023-12-29T06:18:43;1.02;;;0.90;;
77978;SDS011;67169;50.268;8.694;2023-12-29T06:21:13;1.95;;;0.70;;
77978;SDS011;67169;50.268;8.694;2023-12-29T06:23:40;0.95;;;0.63;;
77978;SDS011;67169;50.268;8.694;2023-12-29T06:26:16;2.70;;;0.90;;
77978;SDS011;67169;50.268;8.694;2023-12-29T06:28:43;1.10;;;1.08;;
77978;SDS011;67169;50.268;8.694;2023-12-29T06:31:09;1.60;;;0.60;;
77978;SDS011;67169;50.268;8.694;2023-12-29T06:33:36;2.17;;;0.65;;
77978;SDS011;67169;50.268;8.694;2023-12-29T06:36:03;1.83;;;0.70;;
77978;SDS011;67169;50.268;8.694;2023-12-29T06:38:31;0.65;;;0.57;;
77978;SDS011;67169;50.268;8.694;2023-12-29T06:40:58;0.70;;;0.68;;
77978;SDS011;67169;50.268;8.694;2023-12-29T06:43:25;1.17;;;0.50;;
77978;SDS011;67169;50.268;8.694;2023-12-29T06:45:52;1.08;;;0.38;;
77978;SDS011;67169;50.268;8.694;2023-12-29T06:48:18;2.42;;;0.75;;
77978;SDS011;67169;50.268;8.694;2023-12-29T06:50:45;1.05;;;0.80;;
77978;SDS011;67169;50.268;8.694;2023-12-29T06:53:11;1.35;;;0.77;;
77978;SDS011;67169;50.268;8.694;2023-12-29T06:55:39;1.25;;;1.08;;
77978;SDS011;67169;50.268;8.694;2023-12-29T07:00:33;1.33;;;0.70;;
77978;SDS011;67169;50.268;8.694;2023-12-29T07:03:00;0.70;;;0.70;;
77978;SDS011;67169;50.268;8.694;2023-12-29T07:05:26;0.60;;;0.50;;
77978;SDS011;67169;50.268;8.694;2023-12-29T07:07:53;1.02;;;0.50;;
77978;SDS011;67169;50.268;8.694;2023-12-29T07:10:19;1.17;;;0.93;;
77978;SDS011;67169;50.268;8.694;2023-12-29T07:12:47;1.23;;;1.13;;
77978;SDS011;67169;50.268;8.694;2023-12-29T07:17:42;1.30;;;1.05;;
77978;SDS011;67169;50.268;8.694;2023-12-29T07:20:09;0.90;;;0.77;;
77978;SDS011;67169;50.268;8.694;2023-12-29T07:22:36;0.55;;;0.52;;
77978;SDS011;67169;50.268;8.694;2023-12-29T07:25:03;0.80;;;0.80;;
77978;SDS011;67169;50.268;8.694;2023-12-29T07:27:29;1.38;;;0.98;;
77978;SDS011;67169;50.268;8.694;2023-12-29T07:30:05;1.50;;;1.10;;
77978;SDS011;67169;50.268;8.694;2023-12-29T07:32:33;2.13;;;0.98;;
77978;SDS011;67169;50.268;8.694;2023-12-29T07:34:59;1.10;;;1.00;;
77978;SDS011;67169;50.268;8.694;2023-12-29T07:37:26;1.05;;;0.95;;
77978;SDS011;67169;50.268;8.694;2023-12-29T07:39:52;1.17;;;0.88;;
77978;SDS011;67169;50.268;8.694;2023-12-29T07:42:19;1.50;;;0.80;;
77978;SDS011;67169;50.268;8.694;2023-12-29T07:44:45;1.80;;;1.00;;
77978;SDS011;67169;50.268;8.694;2023-12-29T07:47:13;3.65;;;0.80;;
77978;SDS011;67169;50.268;8.694;2023-12-29T07:52:07;0.77;;;0.55;;
77978;SDS011;67169;50.268;8.694;2023-12-29T07:54:34;0.63;;;0.63;;
77978;SDS011;67169;50.268;8.694;2023-12-29T07:57:00;1.52;;;0.90;;
77978;SDS011;67169;50.268;8.694;2023-12-29T07:59:27;1.63;;;0.93;;
77978;SDS011;67169;50.268;8.694;2023-12-29T08:01:54;1.35;;;0.98;;
77978;SDS011;67169;50.268;8.694;2023-12-29T08:04:25;0.95;;;0.80;;
77978;SDS011;67169;50.268;8.694;2023-12-29T08:06:52;1.08;;;0.93;;
77978;SDS011;67169;50.268;8.694;2023-12-29T08:09:18;2.47;;;0.82;;
77978;SDS011;67169;50.268;8.694;2023-12-29T08:11:46;0.77;;;0.75;;
77978;SDS011;67169;50.268;8.694;2023-12-29T08:14:13;3.03;;;1.17;;
77978;SDS011;67169;50.268;8.694;2023-12-29T08:16:39;1.90;;;1.70;;
77978;SDS011;67169;50.268;8.694;2023-12-29T08:19:06;1.23;;;1.13;;
77978;SDS011;67169;50.268;8.694;2023-12-29T08:21:36;1.08;;;0.70;;
77978;SDS011;67169;50.268;8.694;2023-12-29T08:26:29;2.75;;;1.10;;
77978;SDS011;67169;50.268;8.694;2023-12-29T08:28:56;0.82;;;0.82;;
77978;SDS011;67169;50.268;8.694;2023-12-29T08:31:23;1.20;;;1.10;;
77978;SDS011;67169;50.268;8.694;2023-12-29T08:33:51;1.85;;;0.98;;
77978;SDS011;67169;50.268;8.694;2023-12-29T08:36:18;0.47;;;0.47;;
77978;SDS011;67169;50.268;8.694;2023-12-29T08:38:48;1.35;;;0.90;;
77978;SDS011;67169;50.268;8.694;2023-12-29T08:41:14;0.68;;;0.60;;
77978;SDS011;67169;50.268;8.694;2023-12-29T08:43:41;1.02;;;0.77;;
77978;SDS011;67169;50.268;8.694;2023-12-29T08:46:07;0.75;;;0.57;;
77978;SDS011;67169;50.268;8.694;2023-12-29T08:48:34;4.75;;;1.02;;
77978;SDS011;67169;50.268;8.694;2023-12-29T08:51:01;0.82;;;0.82;;
77978;SDS011;67169;50.268;8.694;2023-12-29T08:53:27;0.70;;;0.70;;
77978;SDS011;67169;50.268;8.694;2023-12-29T08:55:57;0.68;;;0.60;;
77978;SDS011;67169;50.268;8.694;2023-12-29T09:10:36;2.90;;;1.42;;
77978;SDS011;67169;50.268;8.694;2023-12-29T09:13:05;3.63;;;0.70;;
77978;SDS011;67169;50.268;8.694;2023-12-29T09:15:31;2.40;;;1.20;;
77978;SDS011;67169;50.268;8.694;2023-12-29T09:17:59;0.85;;;0.65;;
77978;SDS011;67169;50.268;8.694;2023-12-29T09:20:26;2.15;;;0.70;;
77978;SDS011;67169;50.268;8.694;2023-12-29T09:22:53;2.03;;;0.68;;
77978;SDS011;67169;50.268;8.694;2023-12-29T09:25:20;1.17;;;0.68;;
77978;SDS011;67169;50.268;8.694;2023-12-29T09:27:47;1.05;;;0.60;;
77978;SDS011;67169;50.268;8.694;2023-12-29T09:30:18;0.70;;;0.65;;
77978;SDS011;67169;50.268;8.694;2023-12-29T09:35:11;1.27;;;0.70;;
77978;SDS011;67169;50.268;8.694;2023-12-29T09:37:38;1.02;;;0.57;;
77978;SDS011;67169;50.268;8.694;2023-12-29T09:40:05;1.15;;;0.75;;
77978;SDS011;67169;50.268;8.694;2023-12-29T09:42:34;2.53;;;0.73;;
77978;SDS011;67169;50.268;8.694;2023-12-29T09:45:06;0.55;;;0.50;;
77978;SDS011;67169;50.268;8.694;2023-12-29T09:47:38;0.43;;;0.43;;
77978;SDS011;67169;50.268;8.694;2023-12-29T09:50:06;1.58;;;0.93;;
77978;SDS011;67169;50.268;8.694;2023-12-29T09:52:36;2.38;;;0.80;;
77978;SDS011;67169;50.268;8.694;2023-12-29T09:55:04;0.17;;;0.17;;
77978;SDS011;67169;50.268;8.694;2023-12-29T09:57:34;1.52;;;1.02;;
77978;SDS011;67169;50.268;8.694;2023-12-29T10:00:01;1.38;;;0.60;;
77978;SDS011;67169;50.268;8.694;2023-12-29T10:02:28;0.40;;;0.40;;
77978;SDS011;67169;50.268;8.694;2023-12-29T10:04:59;1.02;;;0.65;;
77978;SDS011;67169;50.268;8.694;2023-12-29T10:07:29;1.30;;;0.77;;
77978;SDS011;67169;50.268;8.694;2023-12-29T10:10:01;3.10;;;0.80;;
77978;SDS011;67169;50.268;8.694;2023-12-29T10:12:30;2.75;;;0.70;;
77978;SDS011;67169;50.268;8.694;2023-12-29T10:15:01;3.53;;;0.68;;
77978;SDS011;67169;50.268;8.694;2023-12-29T10:17:36;0.40;;;0.38;;
77978;SDS011;67169;50.268;8.694;2023-12-29T10:20:27;1.30;;;0.70;;
77978;SDS011;67169;50.268;8.694;2023-12-29T10:23:04;4.65;;;0.90;;
77978;SDS011;67169;50.268;8.694;2023-12-29T10:25:33;1.00;;;0.47;;
77978;SDS011;67169;50.268;8.694;2023-12-29T10:28:00;2.08;;;0.70;;
77978;SDS011;67169;50.268;8.694;2023-12-29T10:30:27;0.52;;;0.45;;
77978;SDS011;67169;50.268;8.694;2023-12-29T10:32:56;0.77;;;0.47;;
77978;SDS011;67169;50.268;8.694;2023-12-29T10:35:25;0.80;;;0.80;;
77978;SDS011;67169;50.268;8.694;2023-12-29T10:40:20;0.40;;;0.40;;
77978;SDS011;67169;50.268;8.694;2023-12-29T10:42:52;0.80;;;0.60;;
77978;SDS011;67169;50.268;8.694;2023-12-29T10:45:30;1.23;;;0.60;;
77978;SDS011;67169;50.268;8.694;2023-12-29T10:47:56;0.47;;;0.47;;
77978;SDS011;67169;50.268;8.694;2023-12-29T10:50:27;0.70;;;0.60;;
77978;SDS011;67169;50.268;8.694;2023-12-29T10:53:00;0.65;;;0.35;;
77978;SDS011;67169;50.268;8.694;2023-12-29T10:55:35;1.65;;;0.57;;
77978;SDS011;67169;50.268;8.694;2023-12-29T10:58:02;2.05;;;0.50;;
77978;SDS011;67169;50.268;8.694;2023-12-29T11:00:29;1.45;;;0.60;;
77978;SDS011;67169;50.268;8.694;2023-12-29T11:02:56;1.10;;;0.57;;
77978;SDS011;67169;50.268;8.694;2023-12-29T11:05:24;0.85;;;0.35;;
77978;SDS011;67169;50.268;8.694;2023-12-29T11:07:53;0.68;;;0.50;;
77978;SDS011;67169;50.268;8.694;2023-12-29T11:10:20;1.55;;;0.50;;
77978;SDS011;67169;50.268;8.694;2023-12-29T11:12:47;3.92;;;0.70;;
77978;SDS011;67169;50.268;8.694;2023-12-29T11:15:15;0.88;;;0.50;;
77978;SDS011;67169;50.268;8.694;2023-12-29T11:17:42;1.40;;;0.38;;
77978;SDS011;67169;50.268;8.694;2023-12-29T11:20:14;1.33;;;0.63;;
77978;SDS011;67169;50.268;8.694;2023-12-29T11:22:45;0.95;;;0.50;;
77978;SDS011;67169;50.268;8.694;2023-12-29T11:25:12;0.77;;;0.50;;
77978;SDS011;67169;50.268;8.694;2023-12-29T11:27:40;1.02;;;0.40;;
77978;SDS011;67169;50.268;8.694;2023-12-29T11:30:08;0.38;;;0.38;;
77978;SDS011;67169;50.268;8.694;2023-12-29T11:32:38;0.77;;;0.28;;
77978;SDS011;67169;50.268;8.694;2023-12-29T11:35:12;1.48;;;0.70;;
77978;SDS011;67169;50.268;8.694;2023-12-29T11:37:55;0.85;;;0.65;;
77978;SDS011;67169;50.268;8.694;2023-12-29T11:40:36;0.47;;;0.35;;
77978;SDS011;67169;50.268;8.694;2023-12-29T11:43:08;0.85;;;0.63;;
77978;SDS011;67169;50.268;8.694;2023-12-29T11:45:39;1.10;;;0.40;;
77978;SDS011;67169;50.268;8.694;2023-12-29T11:48:05;2.17;;;0.57;;
77978;SDS011;67169;50.268;8.694;2023-12-29T11:50:34;1.95;;;0.60;;
77978;SDS011;67169;50.268;8.694;2023-12-29T11:55:30;0.50;;;0.50;;
77978;SDS011;67169;50.268;8.694;2023-12-29T11:57:59;2.45;;;1.10;;
77978;SDS011;67169;50.268;8.694;2023-12-29T12:00:41;2.85;;;0.73;;
77978;SDS011;67169;50.268;8.694;2023-12-29T12:03:18;1.50;;;0.60;;
77978;SDS011;67169;50.268;8.694;2023-12-29T12:05:51;3.30;;;0.57;;
77978;SDS011;67169;50.268;8.694;2023-12-29T12:08:27;2.08;;;0.65;;
77978;SDS011;67169;50.268;8.694;2023-12-29T12:10:55;1.95;;;0.60;;
77978;SDS011;67169;50.268;8.694;2023-12-29T12:13:41;0.75;;;0.50;;
77978;SDS011;67169;50.268;8.694;2023-12-29T12:16:09;0.93;;;0.70;;
77978;SDS011;67169;50.268;8.694;2023-12-29T12:18:35;1.95;;;0.40;;
77978;SDS011;67169;50.268;8.694;2023-12-29T12:21:05;0.52;;;0.30;;
77978;SDS011;67169;50.268;8.694;2023-12-29T12:23:34;0.95;;;0.47;;
77978;SDS011;67169;50.268;8.694;2023-12-29T12:26:06;0.65;;;0.50;;
77978;SDS011;67169;50.268;8.694;2023-12-29T12:28:32;0.30;;;0.30;;
77978;SDS011;67169;50.268;8.694;2023-12-29T12:31:05;4.75;;;0.60;;
77978;SDS011;67169;50.268;8.694;2023-12-29T12:33:33;0.38;;;0.30;;
77978;SDS011;67169;50.268;8.694;2023-12-29T12:36:00;2.00;;;0.32;;
77978;SDS011;67169;50.268;8.694;2023-12-29T12:38:27;1.00;;;0.50;;
77978;SDS011;67169;50.268;8.694;2023-12-29T12:40:57;0.88;;;0.50;;
77978;SDS011;67169;50.268;8.694;2023-12-29T12:43:24;1.67;;;0.50;;
77978;SDS011;67169;50.268;8.694;2023-12-29T12:45:52;0.65;;;0.40;;
77978;SDS011;67169;50.268;8.694;2023-12-29T12:48:22;1.52;;;0.40;;
77978;SDS011;67169;50.268;8.694;2023-12-29T12:53:24;0.20;;;0.20;;
77978;SDS011;67169;50.268;8.694;2023-12-29T12:55:51;0.25;;;0.22;;
77978;SDS011;67169;50.268;8.694;2023-12-29T12:58:20;0.52;;;0.40;;
77978;SDS011;67169;50.268;8.694;2023-12-29T13:00:47;1.23;;;0.30;;
77978;SDS011;67169;50.268;8.694;2023-12-29T13:03:14;0.25;;;0.20;;
77978;SDS011;67169;50.268;8.694;2023-12-29T13:05:41;0.68;;;0.30;;
77978;SDS011;67169;50.268;8.694;2023-12-29T13:08:08;0.52;;;0.35;;
77978;SDS011;67169;50.268;8.694;2023-12-29T13:10:40;0.50;;;0.20;;
77978;SDS011;67169;50.268;8.694;2023-12-29T13:13:06;0.40;;;0.40;;
77978;SDS011;67169;50.268;8.694;2023-12-29T13:15:35;1.15;;;0.52;;
77978;SDS011;67169;50.268;8.694;2023-12-29T13:22:54;1.77;;;0.60;;
77978;SDS011;67169;50.268;8.694;2023-12-29T13:25:20;0.90;;;0.40;;
77978;SDS011;67169;50.268;8.694;2023-12-29T13:27:50;0.90;;;0.82;;
77978;SDS011;67169;50.268;8.694;2023-12-29T13:30:19;4.03;;;0.30;;
77978;SDS011;67169;50.268;8.694;2023-12-29T13:32:48;1.08;;;0.50;;
77978;SDS011;67169;50.268;8.694;2023-12-29T13:35:17;0.85;;;0.40;;
77978;SDS011;67169;50.268;8.694;2023-12-29T13:37:48;0.60;;;0.60;;
77978;SDS011;67169;50.268;8.694;2023-12-29T13:40:22;1.80;;;0.30;;
77978;SDS011;67169;50.268;8.694;2023-12-29T13:42:53;0.17;;;0.17;;
77978;SDS011;67169;50.268;8.694;2023-12-29T13:45:23;1.50;;;0.43;;
77978;SDS011;67169;50.268;8.694;2023-12-29T13:47:52;0.20;;;0.10;;
77978;SDS011;67169;50.268;8.694;2023-12-29T13:50:20;0.57;;;0.40;;
77978;SDS011;67169;50.268;8.694;2023-12-29T13:52:47;0.75;;;0.40;;
77978;SDS011;67169;50.268;8.694;2023-12-29T13:55:20;0.85;;;0.50;;
77978;SDS011;67169;50.268;8.694;2023-12-29T13:57:47;0.90;;;0.40;;
77978;SDS011;67169;50.268;8.694;2023-12-29T14:00:14;1.30;;;0.35;;
77978;SDS011;67169;50.268;8.694;2023-12-29T14:02:43;1.42;;;0.30;;
77978;SDS011;67169;50.268;8.694;2023-12-29T14:05:12;0.13;;;0.13;;
77978;SDS011;67169;50.268;8.694;2023-12-29T14:07:43;0.25;;;0.20;;
77978;SDS011;67169;50.268;8.694;2023-12-29T14:10:13;1.45;;;0.45;;
77978;SDS011;67169;50.268;8.694;2023-12-29T14:12:40;0.90;;;0.35;;
77978;SDS011;67169;50.268;8.694;2023-12-29T14:15:07;1.95;;;0.50;;
77978;SDS011;67169;50.268;8.694;2023-12-29T14:20:03;0.70;;;0.32;;
77978;SDS011;67169;50.268;8.694;2023-12-29T14:22:32;0.13;;;0.10;;
77978;SDS011;67169;50.268;8.694;2023-12-29T14:25:00;0.30;;;0.30;;
77978;SDS011;67169;50.268;8.694;2023-12-29T14:27:28;0.20;;;0.20;;
77978;SDS011;67169;50.268;8.694;2023-12-29T14:29:55;0.50;;;0.20;;
77978;SDS011;67169;50.268;8.694;2023-12-29T14:32:22;0.30;;;0.30;;
77978;SDS011;67169;50.268;8.694;2023-12-29T14:34:49;2.40;;;0.40;;
77978;SDS011;67169;50.268;8.694;2023-12-29T14:37:20;1.85;;;0.85;;
77978;SDS011;67169;50.268;8.694;2023-12-29T14:39:48;0.57;;;0.28;;
77978;SDS011;67169;50.268;8.694;2023-12-29T14:42:15;0.57;;;0.20;;
77978;SDS011;67169;50.268;8.694;2023-12-29T14:44:44;0.35;;;0.17;;
77978;SDS011;67169;50.268;8.694;2023-12-29T14:47:12;0.57;;;0.57;;
77978;SDS011;67169;50.268;8.694;2023-12-29T14:49:39;0.28;;;0.20;;
77978;SDS011;67169;50.268;8.694;2023-12-29T14:52:05;0.98;;;0.20;;
77978;SDS011;67169;50.268;8.694;2023-12-29T14:54:32;0.20;;;0.20;;
77978;SDS011;67169;50.268;8.694;2023-12-29T14:57:00;0.20;;;0.20;;
77978;SDS011;67169;50.268;8.694;2023-12-29T14:59:26;0.30;;;0.30;;
77978;SDS011;67169;50.268;8.694;2023-12-29T15:01:55;0.28;;;0.28;;
77978;SDS011;67169;50.268;8.694;2023-12-29T15:04:22;0.30;;;0.30;;
77978;SDS011;67169;50.268;8.694;2023-12-29T15:06:49;0.10;;;0.10;;
77978;SDS011;67169;50.268;8.694;2023-12-29T15:09:15;0.30;;;0.20;;
77978;SDS011;67169;50.268;8.694;2023-12-29T15:11:42;1.30;;;1.23;;
77978;SDS011;67169;50.268;8.694;2023-12-29T15:14:10;1.38;;;0.28;;
77978;SDS011;67169;50.268;8.694;2023-12-29T15:19:03;0.65;;;0.30;;
77978;SDS011;67169;50.268;8.694;2023-12-29T15:21:30;1.83;;;0.47;;
77978;SDS011;67169;50.268;8.694;2023-12-29T15:23:57;0.55;;;0.30;;
77978;SDS011;67169;50.268;8.694;2023-12-29T15:26:24;0.30;;;0.30;;
77978;SDS011;67169;50.268;8.694;2023-12-29T15:28:50;0.25;;;0.10;;
77978;SDS011;67169;50.268;8.694;2023-12-29T15:31:18;1.05;;;0.43;;
77978;SDS011;67169;50.268;8.694;2023-12-29T15:38:38;0.40;;;0.28;;
77978;SDS011;67169;50.268;8.694;2023-12-29T15:41:05;0.38;;;0.25;;
77978;SDS011;67169;50.268;8.694;2023-12-29T15:43:32;0.60;;;0.60;;
77978;SDS011;67169;50.268;8.694;2023-12-29T15:45:58;1.55;;;0.73;;
77978;SDS011;67169;50.268;8.694;2023-12-29T15:48:26;1.15;;;0.52;;
77978;SDS011;67169;50.268;8.694;2023-12-29T15:50:53;0.63;;;0.30;;
77978;SDS011;67169;50.268;8.694;2023-12-29T15:53:19;0.95;;;0.50;;